• Join FlightAware (Why Join?)
  • Login
  • US Flag 
03:29AM EDT


 

Airport Tracker/Info


-or-


 

Live Flight TrackerFlight Track Log ✈ XOJ750 ✈ 28-Jun-2013 ✈ KAUS - KASE

Flight Track Log - Related Links

Times and Time Zones

All times are in EDT time to prevent confusion due to time zone crossing. See the XOJ750 flight status page for this flight to view local times or setup timezone preferences in your user account.

Time Position Orientation Groundspeed Altitude Reporting Facility
EDT Latitude Longitude Course Direction KTS MPH feet Rate Location/Type
02:45PM 30.1144 -97.6914 290° West 230 265 5,700  Level Houston Center
02:47PM 30.1436 -97.7697 293° West 231 266 8,100 2,160 Climbing Houston Center
02:48PM 30.1767 -97.8558 294° West 271 312 10,200 1,980 Climbing Houston Center
02:49PM 30.2192 -97.9572 296° West 330 380 12,200 1,980 Climbing Houston Center
02:50PM 30.5684 -98.0966 290° West  Level FlightAware Approximate
02:50PM 30.3017 -98.0369 320° Northwest 366 421 14,300  Level Houston Center
02:51PM 30.6122 -98.2359 290° West  Level FlightAware Approximate
02:51PM 30.3819 -98.1003 326° Northwest 379 436 16,000  Level Houston Center
02:52PM 30.4472 -98.2036 306° West 394 453 18,000 1,860 Climbing Houston Center
02:53PM 30.5111 -98.3111 305° West 398 458 19,900 1,980 Climbing Houston Center
02:54PM 30.5883 -98.4356 306° West 401 461 22,100 1,980 Climbing Houston Center
02:55PM 30.6533 -98.5422 305° West 402 463 24,100 1,860 Climbing Houston Center
02:56PM 30.7167 -98.6514 304° West 403 464 26,000 1,800 Climbing Houston Center
02:57PM 30.7811 -98.7606 305° West 405 466 27,900 1,620 Climbing Houston Center
02:58PM 30.8444 -98.8731 303° West 409 471 29,400 1,440 Climbing Houston Center
02:59PM 30.9108 -98.9903 303° West 425 489 30,900 1,260 Climbing Houston Center
03:00PM 30.9672 -99.1192 297° West 440 506 32,100 1,080 Climbing Houston Center
03:01PM 31.0142 -99.2711 290° West 460 529 33,200 960 Climbing Houston Center
03:02PM 31.0594 -99.4169 290° West 477 549 34,200 960 Climbing Houston Center
03:03PM 31.1044 -99.5625 290° West 482 555 35,200 960 Climbing Houston Center
03:04PM 31.1608 -99.7458 290° West 510 587 36,300 960 Climbing Houston Center
03:05PM 31.2075 -99.8986 290° West 508 585 37,300 960 Climbing Houston Center
03:06PM 31.2547 -100.0533 290° West 509 586 38,300 960 Climbing Houston Center
03:07PM 31.3036 -100.2086 290° West 511 588 39,300 960 Climbing Houston Center
03:08PM 31.3500 -100.3650 289° West 510 587 40,300 960 Climbing Houston Center
03:09PM 31.4564 -100.5281 307° West 497 572 41,500 960 Climbing Fort Worth Center
03:10PM 31.5733 -100.6197 326° Northwest 484 557 42,500 720 Climbing Fort Worth Center
03:11PM 31.7022 -100.7147 328° Northwest 489 563 43,000 240 Climbing Fort Worth Center
03:12PM 31.8228 -100.8117 326° Northwest 506 582 43,000  Level Fort Worth Center
03:13PM 31.9431 -100.9167 323° Northwest 524 603 43,000  Level Fort Worth Center
03:14PM 32.0697 -101.0122 327° Northwest 536 617 43,000  Level Fort Worth Center
03:15PM 32.1858 -101.1150 323° Northwest 536 617 43,000  Level Fort Worth Center
03:16PM 32.3100 -101.2183 325° Northwest 530 610 43,000  Level Fort Worth Center
03:17PM 32.4181 -101.3042 326° Northwest 524 603 43,000  Level Fort Worth Center
03:18PM 32.5422 -101.4081 325° Northwest 530 610 43,000  Level Fort Worth Center
03:19PM 32.6642 -101.5072 326° Northwest 535 616 43,000  Level Fort Worth Center
03:20PM 32.7758 -101.6014 325° Northwest 541 623 43,000  Level Fort Worth Center
03:21PM 32.9100 -101.7089 326° Northwest 529 609 43,000  Level Fort Worth Center
03:22PM 33.0417 -101.8219 324° Northwest 529 609 43,000  Level Fort Worth Center
03:23PM 33.1489 -101.9164 324° Northwest 524 603 43,000  Level Fort Worth Center
03:24PM 33.2828 -102.0278 325° Northwest 534 615 43,000  Level Fort Worth Center
03:25PM 33.3836 -102.1175 323° Northwest 524 603 43,000  Level Fort Worth Center
03:26PM 33.5153 -102.2267 325° Northwest 524 603 43,000  Level Fort Worth Center
03:27PM 33.6222 -102.3172 325° Northwest 524 603 43,000  Level Fort Worth Center
03:28PM 33.7281 -102.4044 326° Northwest 517 595 43,000  Level Albuquerque Center
03:29PM 33.8436 -102.5058 324° Northwest 515 593 43,000  Level Albuquerque Center
03:30PM 33.9583 -102.6033 325° Northwest 510 587 43,000 -720 Level Albuquerque Center
03:31PM 34.0686 -102.6978 325° Northwest 496 571 41,600 -1,020 Descending Albuquerque Center
03:32PM 34.1806 -102.7853 327° Northwest 486 559 41,000 -300 Descending Albuquerque Center
03:33PM 34.3081 -102.9069 322° Northwest 499 574 41,000  Level Albuquerque Center
03:34PM 34.4231 -103.0056 325° Northwest 504 580 41,000  Level Albuquerque Center
03:35PM 34.5269 -103.0958 324° Northwest 504 580 41,000  Level Albuquerque Center
03:36PM 34.6631 -103.2161 324° Northwest 512 589 41,000  Level Albuquerque Center
03:37PM 34.7792 -103.3189 324° Northwest 513 590 41,000  Level Albuquerque Center
03:39PM 34.8967 -103.4214 324° Northwest 515 593 41,000  Level Albuquerque Center
03:40PM 35.0133 -103.5247 324° Northwest 516 594 41,000  Level Albuquerque Center
03:41PM 35.1300 -103.6278 324° Northwest 516 594 41,000  Level Albuquerque Center
03:42PM 35.2461 -103.7319 324° Northwest 516 594 41,000  Level Albuquerque Center
03:43PM 35.3617 -103.8358 324° Northwest 516 594 41,000  Level Albuquerque Center
03:44PM 35.4969 -103.9578 324° Northwest 518 596 41,000  Level Albuquerque Center
03:45PM 35.6128 -104.0631 324° Northwest 519 597 41,000  Level Albuquerque Center
03:46PM 35.7169 -104.1825 317° Northwest 514 592 41,000  Level Albuquerque Center
03:47PM 35.8100 -104.3147 311° West 511 588 41,000  Level Albuquerque Center
03:48PM 35.9017 -104.4489 310° West 510 587 41,000  Level Albuquerque Center
03:49PM 35.9942 -104.5836 310° West 511 588 41,000  Level Albuquerque Center
03:50PM 36.0861 -104.7158 311° West 506 582 41,000  Level Albuquerque Center
03:51PM 36.1922 -104.8686 311° West 500 575 41,000  Level Albuquerque Center
03:52PM 36.2831 -104.9986 311° West 498 573 41,000  Level Albuquerque Center
03:53PM 36.3736 -105.1269 311° West 494 568 41,000  Level Albuquerque Center
03:54PM 36.4686 -105.2400 316° Northwest 491 565 41,000 -240 Level Albuquerque Center
03:55PM 36.5953 -105.3467 326° Northwest 492 566 40,600 -540 Descending Albuquerque Center
03:56PM 36.7150 -105.4172 335° Northwest 495 570 40,000 -960 Descending Albuquerque Center
03:57PM 36.8561 -105.4825 340° North 487 560 38,700 -1,140 Descending Albuquerque Center
03:58PM 36.9392 -105.5183 341° North 484 557 38,000 -420 Descending Denver Center
03:59PM 37.0825 -105.5786 341° North 484 557 38,000 -360 Level Denver Center
04:00PM 37.2106 -105.6392 339° North 503 579 37,300 -1,740 Descending Denver Center
04:01PM 37.3619 -105.7269 335° Northwest 473 544 34,100 -2,880 Descending Denver Center
04:02PM 37.4881 -105.7986 336° Northwest 450 518 31,300 -2,580 Descending Denver Center
04:03PM 37.6083 -105.8708 335° Northwest 479 551 28,800 -2,100 Descending Denver Center
04:04PM 37.7353 -105.9411 336° Northwest 509 586 27,000 -900 Descending Denver Center
04:05PM 37.8683 -106.0178 336° Northwest 477 549 27,000  Level Denver Center
04:06PM 37.9756 -106.0792 336° Northwest 452 520 27,000 -120 Level Denver Center
04:07PM 38.0533 -106.1267 334° Northwest 412 474 26,800 -1,260 Descending Denver Center
04:09PM 38.1850 -106.2039 335° Northwest 418 481 24,200 -2,280 Descending Denver Center
04:10PM 38.3144 -106.2808 335° Northwest 425 489 21,600 -2,040 Descending Denver Center
04:11PM 38.4425 -106.3550 336° Northwest 421 484 20,000 -1,020 Descending Denver Center
04:12PM 38.5467 -106.4106 337° Northwest 410 472 19,600 -1,200 Descending Denver Center
04:13PM 38.6442 -106.4625 337° Northwest 386 444 17,600 -1,260 Descending Denver Center
04:14PM 38.7397 -106.5150 337° Northwest 376 433 17,000 -300 Descending Denver Center
04:15PM 38.8336 -106.5647 338° Northwest 367 422 17,000 -120 Level Denver Center
04:16PM 38.9267 -106.6153 337° Northwest 365 420 16,800 -120 Descending Denver Center
04:17PM 39.0172 -106.6636 337° Northwest 358 412 16,800 -240 Level Denver Center
04:18PM 39.1236 -106.7203 338° Northwest 347 399 16,400 -840 Descending Denver Center
04:19PM 39.2011 -106.7550 341° North 304 350 15,100 -1,140 Descending Denver Center
04:20PM 39.2703 -106.7853 341° North 276 318 14,100 -1,500 Descending Denver Center
04:21PM 39.3139 -106.8394 316° Northwest 229 264 12,100 -2,340 Descending Denver Center
04:22PM 39.3044 -106.8928 257° West 221 254 9,300 -1,740 Descending Denver Center
04:23PM 39.2500 -106.8906 178° South 196 226 8,600 -720 Descending Denver Center